createdAt,value
2018-02-01T00:00:33.102Z,11.40
2018-02-01T00:01:33.073Z,12.10
2018-02-01T00:02:33.047Z,12.00
2018-02-01T00:03:33.056Z,11.30
2018-02-01T00:04:32.994Z,11.90
2018-02-01T00:05:33.992Z,12.20
2018-02-01T00:06:32.937Z,12.60
2018-02-01T00:07:32.984Z,11.60
2018-02-01T00:08:32.882Z,12.00
2018-02-01T00:09:32.934Z,11.00
2018-02-01T00:10:32.828Z,10.50
2018-02-01T00:11:32.902Z,10.80
2018-02-01T00:12:32.770Z,11.30
2018-02-01T00:13:32.738Z,11.30
2018-02-01T00:14:32.819Z,10.30
2018-02-01T00:15:32.686Z,10.30
2018-02-01T00:16:32.727Z,9.70
2018-02-01T00:17:32.631Z,10.60
2018-02-01T00:18:32.603Z,10.50
2018-02-01T00:19:32.571Z,11.00
2018-02-01T00:20:32.658Z,10.70
2018-02-01T00:21:32.520Z,10.30
2018-02-01T00:22:32.560Z,9.90
2018-02-01T00:23:32.462Z,10.50
2018-02-01T00:24:32.471Z,10.70
2018-02-01T00:25:32.409Z,10.40
2018-02-01T00:26:32.583Z,10.00
2018-02-01T00:27:32.352Z,10.40
2018-02-01T00:28:32.325Z,10.00
2018-02-01T00:29:32.500Z,9.70
2018-02-01T00:30:32.265Z,10.90
2018-02-01T00:31:32.410Z,9.80
2018-02-01T00:32:32.212Z,9.90
2018-02-01T00:33:32.182Z,10.60
2018-02-01T00:34:32.157Z,10.10
2018-02-01T00:35:33.255Z,10.20
2018-02-01T00:36:32.106Z,10.50
2018-02-01T00:37:32.241Z,10.70
2018-02-01T00:38:32.046Z,11.20
2018-02-01T00:39:32.018Z,11.70
2018-02-01T00:40:31.986Z,11.40
2018-02-01T00:41:32.162Z,11.60
2018-02-01T00:42:31.933Z,11.50
2018-02-01T00:43:32.075Z,10.70
2018-02-01T00:44:31.875Z,11.50
2018-02-01T00:45:31.846Z,11.90
2018-02-01T00:46:31.991Z,12.10
2018-02-01T00:47:31.794Z,13.20
2018-02-01T00:48:31.899Z,12.10
2018-02-01T00:49:31.736Z,12.50
2018-02-01T00:50:31.912Z,12.60
2018-02-01T00:51:31.681Z,13.10
2018-02-01T00:52:31.821Z,12.80
2018-02-01T00:53:31.626Z,13.60
2018-02-01T00:54:31.735Z,13.30
2018-02-01T00:55:31.569Z,13.30
2018-02-01T00:56:31.744Z,13.20
2018-02-01T00:57:31.648Z,13.50
2018-02-01T00:58:31.485Z,13.30
2018-02-01T00:59:31.558Z,13.40
2018-02-01T01:00:31.432Z,13.60
2018-02-01T01:01:31.570Z,13.00
2018-02-01T01:02:31.371Z,13.80
2018-02-01T01:03:31.349Z,13.60
2018-02-01T01:04:31.486Z,13.00
2018-02-01T01:05:31.290Z,12.90
2018-02-01T01:06:31.398Z,12.90
2018-02-01T01:07:31.231Z,13.20
2018-02-01T01:08:31.308Z,13.50
2018-02-01T01:09:31.177Z,13.60
2018-02-01T01:10:31.318Z,13.60
2018-02-01T01:11:31.121Z,12.90
2018-02-01T01:12:31.096Z,13.60
2018-02-01T01:13:31.235Z,13.00
2018-02-01T01:14:31.044Z,13.20
2018-02-01T01:15:32.168Z,13.40
2018-02-01T01:16:30.985Z,13.20
2018-02-01T01:17:30.955Z,12.60
2018-02-01T01:18:30.928Z,12.60
2018-02-01T01:19:31.068Z,13.60
2018-02-01T01:20:30.873Z,13.30
2018-02-01T01:21:30.975Z,12.60
2018-02-01T01:22:30.818Z,12.90
2018-02-01T01:23:30.886Z,13.30
2018-02-01T01:24:30.761Z,12.70
2018-02-01T01:25:31.922Z,12.70
2018-02-01T01:26:30.704Z,13.00
2018-02-01T01:27:30.808Z,12.30
2018-02-01T01:28:30.648Z,12.70
2018-02-01T01:29:30.718Z,12.80
2018-02-01T01:30:30.597Z,13.40
2018-02-01T01:31:30.729Z,12.50
2018-02-01T01:32:30.539Z,11.70
2018-02-01T01:33:30.640Z,12.30
2018-02-01T01:34:30.646Z,12.20
2018-02-01T01:35:30.455Z,11.00
2018-02-01T01:36:30.559Z,10.90
2018-02-01T01:37:30.397Z,11.50
2018-02-01T01:38:30.464Z,11.80
2018-02-01T01:39:30.339Z,11.00
2018-02-01T01:40:30.317Z,10.90
2018-02-01T01:41:30.383Z,10.80
2018-02-01T01:42:30.265Z,10.50
2018-02-01T01:43:30.394Z,10.60
2018-02-01T01:44:30.205Z,9.80
2018-02-01T01:45:31.328Z,9.20
2018-02-01T01:46:30.144Z,9.70
2018-02-01T01:47:30.228Z,9.40
2018-02-01T01:48:30.095Z,10.40
2018-02-01T01:49:30.064Z,9.40
2018-02-01T01:50:30.128Z,9.70
2018-02-01T01:51:30.007Z,8.80
2018-02-01T01:52:30.142Z,9.30
2018-02-01T01:53:29.953Z,9.60
2018-02-01T01:54:30.052Z,9.80
2018-02-01T01:55:29.898Z,9.30
2018-02-01T01:56:29.962Z,9.50
2018-02-01T01:57:29.840Z,9.10
2018-02-01T01:58:29.975Z,9.30
2018-02-01T01:59:29.787Z,9.40
2018-02-01T02:00:29.883Z,8.30
2018-02-01T02:01:29.726Z,8.80
2018-02-01T02:02:29.794Z,9.10
2018-02-01T02:03:29.671Z,8.40
2018-02-01T02:04:29.650Z,8.30
2018-02-01T02:05:30.736Z,8.20
2018-02-01T02:06:29.588Z,8.50
2018-02-01T02:07:29.723Z,8.80
2018-02-01T02:08:29.535Z,8.30
2018-02-01T02:09:29.502Z,8.30
2018-02-01T02:10:29.484Z,8.50
2018-02-01T02:11:29.541Z,7.90
2018-02-01T02:12:29.467Z,7.90
2018-02-01T02:13:29.450Z,8.40
2018-02-01T02:14:29.367Z,7.40
2018-02-01T02:15:30.492Z,8.10
2018-02-01T02:16:29.312Z,7.80
2018-02-01T02:17:29.373Z,7.90
2018-02-01T02:18:29.256Z,8.00
2018-02-01T02:19:29.284Z,8.20
2018-02-01T02:20:29.199Z,8.20
2018-02-01T02:21:29.296Z,7.60
2018-02-01T02:22:29.145Z,7.70
2018-02-01T02:23:29.205Z,7.90
2018-02-01T02:24:29.088Z,7.10
2018-02-01T02:25:29.059Z,7.30
2018-02-01T02:26:29.123Z,7.20
2018-02-01T02:27:29.005Z,7.40
2018-02-01T02:28:29.034Z,7.30
2018-02-01T02:29:28.948Z,7.10
2018-02-01T02:30:29.043Z,7.60
2018-02-01T02:31:28.895Z,7.20
2018-02-01T02:32:28.955Z,7.50
2018-02-01T02:33:28.959Z,7.30
2018-02-01T02:34:28.802Z,7.30
2018-02-01T02:35:29.894Z,7.30
2018-02-01T02:36:28.750Z,7.40
2018-02-01T02:37:28.779Z,7.40
2018-02-01T02:38:28.694Z,7.80
2018-02-01T02:39:28.669Z,7.70
2018-02-01T02:40:28.697Z,7.10
2018-02-01T02:41:28.609Z,7.70
2018-02-01T02:42:28.708Z,7.10
2018-02-01T02:43:28.558Z,6.50
2018-02-01T02:44:28.624Z,7.70
2018-02-01T02:45:28.497Z,7.00
2018-02-01T02:46:28.527Z,7.30
2018-02-01T02:47:28.444Z,7.30
2018-02-01T02:48:28.539Z,7.10
2018-02-01T02:49:28.385Z,7.50
2018-02-01T02:50:28.362Z,6.90
2018-02-01T02:51:28.326Z,7.30
2018-02-01T02:52:28.361Z,7.30
2018-02-01T02:53:28.276Z,7.10
2018-02-01T02:54:28.372Z,7.00
2018-02-01T02:55:28.218Z,7.90
2018-02-01T02:56:28.191Z,7.10
2018-02-01T02:57:28.287Z,6.90
2018-02-01T02:58:28.135Z,7.00
2018-02-01T02:59:28.198Z,6.70
2018-02-01T03:00:28.079Z,7.00
2018-02-01T03:01:28.107Z,6.50
2018-02-01T03:02:28.027Z,6.80
2018-02-01T03:03:28.120Z,6.40
2018-02-01T03:04:27.962Z,6.80
2018-02-01T03:05:27.937Z,6.60
2018-02-01T03:06:27.911Z,6.20
2018-02-01T03:07:27.944Z,5.50
2018-02-01T03:08:27.860Z,5.60
2018-02-01T03:09:27.848Z,6.10
2018-02-01T03:10:27.795Z,5.60
2018-02-01T03:11:27.768Z,6.40
2018-02-01T03:12:27.768Z,5.90
2018-02-01T03:13:27.715Z,5.90
2018-02-01T03:14:27.886Z,5.70
2018-02-01T03:15:27.655Z,6.00
2018-02-01T03:16:27.790Z,5.60
2018-02-01T03:17:27.601Z,5.30
2018-02-01T03:18:27.701Z,6.00
2018-02-01T03:19:27.541Z,5.90
2018-02-01T03:20:27.712Z,5.60
2018-02-01T03:21:27.487Z,5.70
2018-02-01T03:22:27.462Z,5.30
2018-02-01T03:23:27.432Z,5.50
2018-02-01T03:24:27.428Z,5.70
2018-02-01T03:25:27.379Z,5.40
2018-02-01T03:26:27.442Z,5.00
2018-02-01T03:27:27.322Z,5.50
2018-02-01T03:28:27.291Z,5.30
2018-02-01T03:29:27.262Z,5.40
2018-02-01T03:30:27.263Z,4.90
2018-02-01T03:31:27.210Z,5.60
2018-02-01T03:32:28.196Z,4.70
2018-02-01T03:33:27.152Z,5.20
2018-02-01T03:34:27.122Z,4.90
2018-02-01T03:35:27.097Z,5.20
2018-02-01T03:36:27.093Z,6.00
2018-02-01T03:37:27.043Z,5.20
2018-02-01T03:38:27.107Z,5.30
2018-02-01T03:39:26.985Z,5.60
2018-02-01T03:40:26.954Z,5.40
2018-02-01T03:41:27.022Z,5.10
2018-02-01T03:42:26.900Z,5.00
2018-02-01T03:43:26.933Z,5.20
2018-02-01T03:44:26.844Z,5.30
2018-02-01T03:45:26.815Z,5.80
2018-02-01T03:46:26.784Z,5.60
2018-02-01T03:47:26.855Z,5.50
2018-02-01T03:48:26.729Z,5.50
2018-02-01T03:49:26.764Z,5.30
2018-02-01T03:50:26.675Z,5.50
2018-02-01T03:51:26.648Z,5.50
2018-02-01T03:52:26.680Z,5.30
2018-02-01T03:53:26.588Z,5.30
2018-02-01T03:54:26.590Z,5.60
2018-02-01T03:55:26.534Z,5.70
2018-02-01T03:56:26.601Z,5.70
2018-02-01T03:57:26.474Z,5.60
2018-02-01T03:58:26.511Z,5.50
2018-02-01T03:59:26.423Z,5.00
2018-02-01T04:00:26.421Z,5.70
2018-02-01T04:01:26.362Z,5.20
2018-02-01T04:02:26.433Z,5.80
2018-02-01T04:03:26.310Z,5.00
2018-02-01T04:04:26.343Z,5.20
2018-02-01T04:05:26.252Z,5.80
2018-02-01T04:06:26.254Z,5.80
2018-02-01T04:07:26.197Z,5.70
2018-02-01T04:08:26.265Z,5.60
2018-02-01T04:09:26.171Z,6.10
2018-02-01T04:10:26.110Z,5.80
2018-02-01T04:11:26.182Z,6.20
2018-02-01T04:12:26.053Z,5.80
2018-02-01T04:13:26.094Z,6.00
2018-02-01T04:14:25.998Z,6.60
2018-02-01T04:15:26.002Z,5.90
2018-02-01T04:16:25.945Z,6.00
2018-02-01T04:17:26.014Z,6.30
2018-02-01T04:18:25.883Z,6.30
2018-02-01T04:19:25.924Z,6.40
2018-02-01T04:20:25.832Z,7.10
2018-02-01T04:21:25.802Z,6.80
2018-02-01T04:22:25.840Z,6.80
2018-02-01T04:23:25.746Z,6.10
2018-02-01T04:24:25.758Z,6.20
2018-02-01T04:25:25.690Z,6.50
2018-02-01T04:26:25.657Z,6.20
2018-02-01T04:27:25.665Z,5.70
2018-02-01T04:28:25.606Z,6.40
2018-02-01T04:29:25.678Z,6.20
2018-02-01T04:30:25.546Z,6.20
2018-02-01T04:31:25.587Z,6.20
2018-02-01T04:32:25.601Z,6.60
2018-02-01T04:33:25.463Z,6.10
2018-02-01T04:34:25.505Z,5.90
2018-02-01T04:35:25.403Z,6.30
2018-02-01T04:36:25.414Z,6.20
2018-02-01T04:37:25.351Z,6.00
2018-02-01T04:38:25.320Z,6.50
2018-02-01T04:39:25.330Z,6.30
2018-02-01T04:40:25.267Z,6.60
2018-02-01T04:41:25.342Z,6.60
2018-02-01T04:42:25.208Z,7.50
2018-02-01T04:43:25.250Z,6.40
2018-02-01T04:44:25.154Z,7.80
2018-02-01T04:45:25.163Z,6.70
2018-02-01T04:46:25.100Z,7.10
2018-02-01T04:47:25.175Z,7.40
2018-02-01T04:48:25.042Z,7.10
2018-02-01T04:49:25.013Z,7.40
2018-02-01T04:50:24.981Z,6.80
2018-02-01T04:51:24.994Z,7.50
2018-02-01T04:52:24.928Z,7.30
2018-02-01T04:53:25.006Z,7.60
2018-02-01T04:54:24.871Z,7.60
2018-02-01T04:55:24.838Z,7.30
2018-02-01T04:56:24.816Z,7.10
2018-02-01T04:57:24.824Z,7.00
2018-02-01T04:58:24.759Z,7.40
2018-02-01T04:59:24.836Z,7.60
2018-02-01T05:00:24.704Z,7.60
2018-02-01T05:01:24.672Z,7.90
2018-02-01T05:02:24.753Z,7.20
2018-02-01T05:03:24.617Z,7.70
2018-02-01T05:04:24.664Z,7.50
2018-02-01T05:05:24.560Z,7.90
2018-02-01T05:06:24.575Z,7.20
2018-02-01T05:07:24.507Z,7.70
2018-02-01T05:08:24.587Z,7.90
2018-02-01T05:09:24.446Z,7.90
2018-02-01T05:10:24.498Z,7.70
2018-02-01T05:11:24.391Z,7.70
2018-02-01T05:12:24.406Z,7.80
2018-02-01T05:13:24.334Z,7.50
2018-02-01T05:14:24.417Z,7.40
2018-02-01T05:15:24.272Z,7.40
2018-02-01T05:16:24.331Z,7.30
2018-02-01T05:17:24.334Z,7.80
2018-02-01T05:18:24.191Z,7.10
2018-02-01T05:19:24.244Z,7.70
2018-02-01T05:20:24.138Z,7.60
2018-02-01T05:21:24.153Z,7.40
2018-02-01T05:22:24.077Z,7.10
2018-02-01T05:23:24.046Z,7.50
2018-02-01T05:24:24.070Z,6.80
2018-02-01T05:25:23.994Z,7.10
2018-02-01T05:26:23.980Z,7.70
2018-02-01T05:27:23.936Z,6.90
2018-02-01T05:28:23.993Z,7.50
2018-02-01T05:29:23.897Z,7.60
2018-02-01T05:30:23.853Z,7.50
2018-02-01T05:31:23.936Z,8.00
2018-02-01T05:32:23.795Z,7.90
2018-02-01T05:33:23.853Z,7.30
2018-02-01T05:34:23.824Z,7.40
2018-02-01T05:35:23.713Z,8.30
2018-02-01T05:36:23.733Z,8.50
2018-02-01T05:37:23.652Z,8.10
2018-02-01T05:38:23.644Z,8.00
2018-02-01T05:39:23.598Z,8.00
2018-02-01T05:40:23.656Z,8.00
2018-02-01T05:41:23.542Z,7.50
2018-02-01T05:42:23.564Z,7.20
2018-02-01T05:43:23.483Z,7.90
2018-02-01T05:44:23.457Z,7.70
2018-02-01T05:45:23.433Z,8.20
2018-02-01T05:46:23.487Z,7.50
2018-02-01T05:47:23.369Z,7.60
2018-02-01T05:48:23.399Z,7.90
2018-02-01T05:49:23.312Z,7.40
2018-02-01T05:50:23.411Z,7.30
2018-02-01T05:51:23.256Z,7.40
2018-02-01T05:52:23.320Z,7.70
2018-02-01T05:53:23.199Z,7.10
2018-02-01T05:54:23.182Z,7.80
2018-02-01T05:55:23.145Z,7.80
2018-02-01T05:56:23.231Z,7.20
2018-02-01T05:57:23.114Z,6.90
2018-02-01T05:58:23.141Z,7.70
2018-02-01T05:59:23.030Z,7.30
2018-02-01T06:00:23.016Z,6.90
2018-02-01T06:01:22.979Z,7.10
2018-02-01T06:02:22.964Z,6.00
2018-02-01T06:03:22.919Z,7.00
2018-02-01T06:04:22.983Z,7.60
2018-02-01T06:05:22.864Z,7.20
2018-02-01T06:06:22.893Z,7.60
2018-02-01T06:07:22.808Z,7.80
2018-02-01T06:08:22.910Z,7.40
2018-02-01T06:09:22.752Z,7.50
2018-02-01T06:10:22.827Z,7.30
2018-02-01T06:11:22.695Z,7.00
2018-02-01T06:12:22.726Z,7.10
2018-02-01T06:13:22.635Z,6.60
2018-02-01T06:14:22.637Z,5.80
2018-02-01T06:15:22.580Z,6.80
2018-02-01T06:16:22.649Z,6.50
2018-02-01T06:17:22.525Z,6.80
2018-02-01T06:18:22.558Z,7.40
2018-02-01T06:19:22.466Z,5.90
2018-02-01T06:20:22.468Z,6.30
2018-02-01T06:21:22.410Z,6.70
2018-02-01T06:22:22.501Z,6.90
2018-02-01T06:23:22.351Z,6.50
2018-02-01T06:24:22.326Z,6.20
2018-02-01T06:25:22.296Z,6.80
2018-02-01T06:26:22.305Z,6.60
2018-02-01T06:27:22.241Z,6.00
2018-02-01T06:28:22.340Z,6.70
2018-02-01T06:29:22.181Z,6.60
2018-02-01T06:30:22.154Z,6.50
2018-02-01T06:31:22.238Z,6.80
2018-02-01T06:32:22.096Z,7.00
2018-02-01T06:33:22.147Z,6.30
2018-02-01T06:34:22.044Z,6.00
2018-02-01T06:35:22.060Z,6.30
2018-02-01T06:36:22.070Z,6.20
2018-02-01T06:37:21.959Z,6.20
2018-02-01T06:38:21.977Z,6.10
2018-02-01T06:39:21.898Z,6.30
2018-02-01T06:40:21.889Z,6.20
2018-02-01T06:41:21.843Z,6.30
2018-02-01T06:42:21.813Z,6.70
2018-02-01T06:43:21.807Z,5.40
2018-02-01T06:44:21.757Z,6.20
2018-02-01T06:45:21.821Z,5.90
2018-02-01T06:46:21.709Z,6.50
2018-02-01T06:47:21.730Z,5.20
2018-02-01T06:48:21.647Z,5.50
2018-02-01T06:49:21.641Z,6.00
2018-02-01T06:50:21.590Z,5.30
2018-02-01T06:51:21.655Z,5.70
2018-02-01T06:52:21.579Z,6.00
2018-02-01T06:53:21.502Z,6.40
2018-02-01T06:54:21.475Z,6.00
2018-02-01T06:55:21.532Z,5.60
2018-02-01T06:56:21.482Z,6.60
2018-02-01T06:57:21.490Z,6.50
2018-02-01T06:58:21.373Z,6.10
2018-02-01T06:59:21.333Z,5.90
2018-02-01T07:00:21.310Z,6.30
2018-02-01T07:01:21.313Z,5.70
2018-02-01T07:02:21.252Z,6.10
2018-02-01T07:03:21.333Z,5.80
2018-02-01T07:04:21.202Z,5.40
2018-02-01T07:05:21.162Z,5.20
2018-02-01T07:06:21.141Z,5.30
2018-02-01T07:07:21.150Z,5.00
2018-02-01T07:08:21.082Z,5.40
2018-02-01T07:09:21.171Z,5.50
2018-02-01T07:10:21.024Z,5.20
2018-02-01T07:11:20.993Z,5.70
2018-02-01T07:12:20.967Z,5.20
2018-02-01T07:13:20.984Z,5.00
2018-02-01T07:14:20.911Z,5.10
2018-02-01T07:15:20.997Z,4.70
2018-02-01T07:16:20.853Z,5.30
2018-02-01T07:17:20.909Z,5.30
2018-02-01T07:18:20.794Z,5.10
2018-02-01T07:19:20.820Z,4.70
2018-02-01T07:20:20.785Z,4.60
2018-02-01T07:21:20.732Z,5.20
2018-02-01T07:22:20.685Z,5.90
2018-02-01T07:23:20.659Z,7.50
2018-02-01T07:24:20.655Z,8.70
2018-02-01T07:25:20.605Z,7.10
2018-02-01T07:26:20.661Z,7.00
2018-02-01T07:27:20.544Z,8.10
2018-02-01T07:28:20.518Z,10.80
2018-02-01T07:29:20.486Z,6.50
2018-02-01T07:30:20.486Z,8.80
2018-02-01T07:31:20.432Z,7.20
2018-02-01T07:32:20.497Z,5.90
2018-02-01T07:33:20.370Z,5.60
2018-02-01T07:34:20.351Z,6.90
2018-02-01T07:35:20.323Z,8.30
2018-02-01T07:36:20.294Z,10.80
2018-02-01T07:37:20.328Z,10.20
2018-02-01T07:38:20.236Z,10.30
2018-02-01T07:39:20.209Z,12.80
2018-02-01T07:40:20.175Z,9.30
2018-02-01T07:41:20.200Z,12.50
2018-02-01T07:42:20.121Z,10.40
2018-02-01T07:43:20.111Z,11.30
2018-02-01T07:44:20.062Z,12.20
2018-02-01T07:45:20.123Z,7.00
2018-02-01T07:46:20.026Z,6.20
2018-02-01T07:47:19.979Z,6.00
2018-02-01T07:48:20.041Z,5.30
2018-02-01T07:49:19.924Z,5.80
2018-02-01T07:50:19.950Z,5.30
2018-02-01T07:51:19.867Z,5.60
2018-02-01T07:52:19.858Z,5.80
2018-02-01T07:53:19.813Z,5.70
2018-02-01T07:54:19.870Z,5.90
2018-02-01T07:55:19.748Z,5.30
2018-02-01T07:56:19.787Z,5.60
2018-02-01T07:57:19.694Z,4.90
2018-02-01T07:58:19.668Z,5.70
2018-02-01T07:59:19.700Z,5.10
2018-02-01T08:00:19.609Z,4.80
2018-02-01T08:01:19.709Z,5.80
2018-02-01T08:02:19.556Z,5.40
2018-02-01T08:03:19.525Z,5.30
2018-02-01T08:04:19.500Z,5.00
2018-02-01T08:05:19.529Z,5.00
2018-02-01T08:06:19.443Z,5.20
2018-02-01T08:07:19.437Z,5.30
2018-02-01T08:08:19.389Z,5.20
2018-02-01T08:09:19.357Z,4.90
2018-02-01T08:10:19.334Z,5.10
2018-02-01T08:11:19.361Z,5.30
2018-02-01T08:12:19.272Z,4.70
2018-02-01T08:13:19.270Z,5.00
2018-02-01T08:14:19.226Z,4.80
2018-02-01T08:15:19.196Z,4.90
2018-02-01T08:16:19.187Z,4.90
2018-02-01T08:17:19.135Z,4.60
2018-02-01T08:18:19.170Z,5.10
2018-02-01T08:19:19.078Z,5.00
2018-02-01T08:20:19.081Z,4.10
2018-02-01T08:21:19.025Z,4.40
2018-02-01T08:22:19.092Z,4.90
2018-02-01T08:23:18.966Z,4.20
2018-02-01T08:24:19.005Z,4.70
2018-02-01T08:25:18.909Z,4.80
2018-02-01T08:26:18.878Z,4.60
2018-02-01T08:27:18.851Z,4.70
2018-02-01T08:28:18.931Z,4.70
2018-02-01T08:29:18.795Z,4.40
2018-02-01T08:30:18.857Z,4.50
2018-02-01T08:31:18.736Z,4.60
2018-02-01T08:32:18.719Z,4.60
2018-02-01T08:33:18.681Z,4.30
2018-02-01T08:34:18.765Z,4.30
2018-02-01T08:35:18.626Z,4.20
2018-02-01T08:36:18.676Z,3.90
2018-02-01T08:37:18.570Z,4.60
2018-02-01T08:38:18.543Z,4.40
2018-02-01T08:39:18.513Z,4.30
2018-02-01T08:40:18.600Z,4.20
2018-02-01T08:41:18.456Z,4.30
2018-02-01T08:42:18.513Z,4.50
2018-02-01T08:43:18.403Z,3.60
2018-02-01T08:44:18.378Z,3.70
2018-02-01T08:45:18.355Z,4.40
2018-02-01T08:46:18.332Z,4.00
2018-02-01T08:47:18.288Z,4.10
2018-02-01T08:48:18.348Z,4.40
2018-02-01T08:49:18.238Z,4.60
2018-02-01T08:50:18.266Z,4.00
2018-02-01T08:51:18.180Z,4.20
2018-02-01T08:52:18.170Z,4.30
2018-02-01T08:53:18.120Z,4.00
2018-02-01T08:54:18.188Z,4.00
2018-02-01T08:55:18.070Z,3.80
2018-02-01T08:56:18.097Z,4.20
2018-02-01T08:57:18.010Z,3.70
2018-02-01T08:58:18.010Z,4.00
2018-02-01T08:59:17.961Z,4.30
2018-02-01T09:00:18.022Z,3.80
2018-02-01T09:01:17.903Z,3.80
2018-02-01T09:02:17.936Z,4.50
2018-02-01T09:03:17.844Z,4.10
2018-02-01T09:04:17.845Z,3.60
2018-02-01T09:05:17.792Z,4.10
2018-02-01T09:06:17.855Z,3.50
2018-02-01T09:07:17.760Z,4.20
2018-02-01T09:08:17.707Z,3.60
2018-02-01T09:09:17.772Z,3.90
2018-02-01T09:10:17.656Z,4.00
2018-02-01T09:11:17.683Z,4.10
2018-02-01T09:12:17.594Z,3.80
2018-02-01T09:13:17.569Z,4.00
2018-02-01T09:14:17.601Z,4.20
2018-02-01T09:15:17.512Z,4.20
2018-02-01T09:16:17.514Z,4.10
2018-02-01T09:17:17.523Z,4.30
2018-02-01T09:18:17.525Z,4.10
2018-02-01T09:19:17.400Z,3.90
2018-02-01T09:20:17.442Z,4.00
2018-02-01T09:21:17.345Z,4.00
2018-02-01T09:22:17.350Z,4.00
2018-02-01T09:23:17.286Z,4.30
2018-02-01T09:24:17.262Z,3.80
2018-02-01T09:25:17.240Z,4.00
2018-02-01T09:26:17.273Z,4.10
2018-02-01T09:27:17.177Z,4.00
2018-02-01T09:28:17.186Z,4.30
2018-02-01T09:29:17.120Z,4.00
2018-02-01T09:30:17.098Z,3.90
2018-02-01T09:31:17.067Z,4.40
2018-02-01T09:32:17.110Z,4.50
2018-02-01T09:33:17.011Z,4.10
2018-02-01T09:34:17.021Z,4.50
2018-02-01T09:35:16.958Z,3.80
2018-02-01T09:36:16.932Z,3.70
2018-02-01T09:37:16.902Z,4.60
2018-02-01T09:38:16.947Z,4.00
2018-02-01T09:39:16.845Z,4.60
2018-02-01T09:40:16.855Z,4.30
2018-02-01T09:41:16.797Z,4.40
2018-02-01T09:42:16.766Z,4.40
2018-02-01T09:43:16.780Z,3.80
2018-02-01T09:44:16.711Z,3.40
2018-02-01T09:45:16.793Z,4.20
2018-02-01T09:46:16.654Z,4.40
2018-02-01T09:47:16.627Z,5.00
2018-02-01T09:48:16.601Z,4.30
2018-02-01T09:49:16.612Z,4.10
2018-02-01T09:50:16.542Z,4.10
2018-02-01T09:51:16.622Z,4.40
2018-02-01T09:52:16.495Z,4.20
2018-02-01T09:53:16.503Z,4.40
2018-02-01T09:54:16.436Z,4.20
2018-02-01T09:55:16.442Z,3.80
2018-02-01T09:56:16.612Z,4.70
2018-02-01T09:57:16.457Z,4.10
2018-02-01T09:58:16.323Z,4.10
2018-02-01T09:59:16.297Z,4.20
2018-02-01T10:00:16.377Z,4.20
2018-02-01T10:01:16.244Z,4.30
2018-02-01T10:02:16.285Z,4.00
2018-02-01T10:03:16.190Z,4.00
2018-02-01T10:04:16.171Z,4.00
2018-02-01T10:05:16.136Z,4.30
2018-02-01T10:06:16.210Z,4.10
2018-02-01T10:07:16.094Z,4.20
2018-02-01T10:08:16.122Z,3.60
2018-02-01T10:09:16.034Z,3.70
2018-02-01T10:10:15.996Z,3.90
2018-02-01T10:11:16.039Z,4.10
2018-02-01T10:12:15.942Z,3.80
2018-02-01T10:13:15.950Z,3.80
2018-02-01T10:14:15.890Z,3.80
2018-02-01T10:15:15.967Z,4.10
2018-02-01T10:16:15.834Z,3.60
2018-02-01T10:17:15.813Z,4.00
2018-02-01T10:18:15.788Z,4.10
2018-02-01T10:19:15.768Z,4.10
2018-02-01T10:20:15.793Z,3.70
2018-02-01T10:21:15.700Z,4.10
2018-02-01T10:22:15.670Z,3.80
2018-02-01T10:23:15.648Z,3.70
2018-02-01T10:24:15.915Z,3.80
2018-02-01T10:25:15.592Z,4.10
2018-02-01T10:26:15.632Z,3.70
2018-02-01T10:27:15.640Z,4.20
2018-02-01T10:28:15.513Z,4.20
2018-02-01T10:29:15.548Z,3.80
2018-02-01T10:30:15.458Z,3.90
2018-02-01T10:31:15.459Z,4.10
2018-02-01T10:32:15.406Z,3.90
2018-02-01T10:33:15.474Z,4.10
2018-02-01T10:34:15.347Z,4.00
2018-02-01T10:35:15.407Z,4.00
2018-02-01T10:36:15.294Z,3.30
2018-02-01T10:37:15.296Z,3.80
2018-02-01T10:38:15.235Z,3.90
2018-02-01T10:39:15.305Z,3.80
2018-02-01T10:40:15.209Z,3.80
2018-02-01T10:41:15.160Z,3.60
2018-02-01T10:42:15.224Z,3.60
2018-02-01T10:43:15.110Z,3.80
2018-02-01T10:44:15.156Z,3.60
2018-02-01T10:45:15.055Z,4.00
2018-02-01T10:46:15.018Z,3.60
2018-02-01T10:47:15.053Z,3.90
2018-02-01T10:48:14.966Z,3.50
2018-02-01T10:49:14.964Z,3.80
2018-02-01T10:50:14.910Z,3.70
2018-02-01T10:51:15.006Z,3.50
2018-02-01T10:52:14.860Z,3.60
2018-02-01T10:53:14.892Z,3.80
2018-02-01T10:54:14.801Z,3.80
2018-02-01T10:55:14.798Z,4.10
2018-02-01T10:56:14.756Z,3.50
2018-02-01T10:57:14.719Z,3.70
2018-02-01T10:58:14.736Z,3.90
2018-02-01T10:59:14.677Z,3.10
2018-02-01T11:00:14.741Z,3.30
2018-02-01T11:01:14.618Z,3.60
2018-02-01T11:02:14.642Z,3.90
2018-02-01T11:03:14.648Z,3.10
2018-02-01T11:04:14.534Z,3.40
2018-02-01T11:05:14.560Z,3.40
2018-02-01T11:06:14.480Z,3.50
2018-02-01T11:07:14.471Z,3.70
2018-02-01T11:08:14.424Z,3.60
2018-02-01T11:09:14.395Z,3.60
2018-02-01T11:10:14.390Z,3.60
2018-02-01T11:11:14.348Z,3.40
2018-02-01T11:12:14.402Z,3.80
2018-02-01T11:13:14.287Z,3.40
2018-02-01T11:14:14.396Z,3.40
2018-02-01T11:15:14.233Z,3.30
2018-02-01T11:16:14.225Z,3.00
2018-02-01T11:17:14.191Z,3.10
2018-02-01T11:18:14.237Z,3.30
2018-02-01T11:19:14.127Z,3.20
2018-02-01T11:20:14.104Z,3.70
2018-02-01T11:21:14.075Z,3.10
2018-02-01T11:22:14.062Z,3.40
2018-02-01T11:23:14.021Z,3.30
2018-02-01T11:24:14.073Z,3.40
2018-02-01T11:25:14.019Z,2.90
2018-02-01T11:26:13.939Z,3.40
2018-02-01T11:27:13.911Z,3.30
2018-02-01T11:28:13.999Z,2.90
2018-02-01T11:29:13.858Z,2.90
2018-02-01T11:30:13.908Z,3.10
2018-02-01T11:31:13.805Z,3.30
2018-02-01T11:32:13.774Z,3.50
2018-02-01T11:33:13.828Z,3.70
2018-02-01T11:34:13.722Z,2.90
2018-02-01T11:35:13.739Z,3.10
2018-02-01T11:36:13.669Z,3.00
2018-02-01T11:37:13.771Z,3.10
2018-02-01T11:38:13.675Z,3.10
2018-02-01T11:39:13.588Z,2.90
2018-02-01T11:40:13.673Z,3.00
2018-02-01T11:41:13.530Z,2.70
2018-02-01T11:42:13.505Z,2.60
2018-02-01T11:43:13.490Z,3.20
2018-02-01T11:44:13.453Z,2.70
2018-02-01T11:45:13.423Z,3.10
2018-02-01T11:46:13.505Z,2.80
2018-02-01T11:47:13.367Z,2.90
2018-02-01T11:48:13.419Z,2.80
2018-02-01T11:49:13.317Z,3.00
2018-02-01T11:50:13.328Z,3.10
2018-02-01T11:51:13.258Z,2.90
2018-02-01T11:52:13.342Z,3.20
2018-02-01T11:53:13.209Z,3.00
2018-02-01T11:54:13.250Z,2.70
2018-02-01T11:55:13.261Z,2.70
2018-02-01T11:56:13.129Z,2.50
2018-02-01T11:57:13.172Z,2.60
2018-02-01T11:58:13.071Z,2.80
2018-02-01T11:59:13.083Z,2.90
2018-02-01T12:00:13.023Z,3.00
2018-02-01T12:01:12.988Z,2.30
2018-02-01T12:02:12.967Z,2.40
2018-02-01T12:03:13.004Z,2.20
2018-02-01T12:04:12.911Z,2.50
2018-02-01T12:05:12.917Z,2.60
2018-02-01T12:06:12.860Z,2.70
2018-02-01T12:07:12.826Z,2.40
2018-02-01T12:08:12.865Z,2.50
2018-02-01T12:09:12.789Z,2.50
2018-02-01T12:10:12.847Z,2.30
2018-02-01T12:11:12.724Z,2.40
2018-02-01T12:12:12.758Z,2.60
2018-02-01T12:13:12.666Z,2.40
2018-02-01T12:14:12.669Z,2.50
2018-02-01T12:15:12.612Z,2.50
2018-02-01T12:16:12.685Z,2.60
2018-02-01T12:17:12.554Z,2.40
2018-02-01T12:18:12.533Z,2.60
2018-02-01T12:19:12.501Z,2.70
2018-02-01T12:20:12.506Z,2.50
2018-02-01T12:21:12.447Z,2.40
2018-02-01T12:22:12.519Z,2.40
2018-02-01T12:23:12.393Z,2.50
2018-02-01T12:24:12.370Z,2.30
2018-02-01T12:25:12.340Z,2.50
2018-02-01T12:26:12.341Z,2.10
2018-02-01T12:27:12.288Z,2.30
2018-02-01T12:28:12.354Z,2.20
2018-02-01T12:29:12.256Z,2.30
2018-02-01T12:30:12.207Z,2.50
2018-02-01T12:31:12.273Z,2.50
2018-02-01T12:32:12.157Z,2.40
2018-02-01T12:33:12.184Z,2.20
2018-02-01T12:34:12.095Z,2.60
2018-02-01T12:35:12.095Z,2.50
2018-02-01T12:36:12.101Z,2.60
2018-02-01T12:37:12.018Z,2.50
2018-02-01T12:38:12.013Z,2.30
2018-02-01T12:39:11.961Z,2.30
2018-02-01T12:40:12.027Z,2.50
2018-02-01T12:41:11.909Z,2.50
2018-02-01T12:42:11.880Z,2.50
2018-02-01T12:43:11.944Z,2.50
2018-02-01T12:44:11.829Z,3.10
2018-02-01T12:45:11.855Z,2.70
2018-02-01T12:46:11.771Z,2.70
2018-02-01T12:47:11.766Z,2.70
2018-02-01T12:48:11.719Z,2.70
2018-02-01T12:49:11.781Z,2.90
2018-02-01T12:50:11.662Z,2.80
2018-02-01T12:51:11.691Z,2.60
2018-02-01T12:52:11.608Z,3.00
2018-02-01T12:53:11.586Z,2.80
2018-02-01T12:54:11.550Z,3.00
2018-02-01T12:55:11.616Z,2.80
2018-02-01T12:56:11.499Z,3.50
2018-02-01T12:57:11.526Z,2.70
2018-02-01T12:58:11.441Z,2.90
2018-02-01T12:59:11.422Z,2.80
2018-02-01T13:00:11.386Z,3.10
2018-02-01T13:01:11.451Z,2.80
2018-02-01T13:02:11.331Z,2.80
2018-02-01T13:03:11.362Z,3.00
2018-02-01T13:04:11.281Z,2.80
2018-02-01T13:05:11.260Z,2.70
2018-02-01T13:06:11.280Z,2.70
2018-02-01T13:07:11.201Z,2.50
2018-02-01T13:08:11.191Z,2.90
2018-02-01T13:09:11.141Z,2.40
2018-02-01T13:10:11.204Z,2.60
2018-02-01T13:11:11.086Z,2.90
2018-02-01T13:12:11.115Z,3.20
2018-02-01T13:13:11.032Z,3.10
2018-02-01T13:14:11.049Z,2.70